Noord Nederlandse Zweefvliegclub

METAR EHGG TAF EHGG
4 °C
°C
-
°C
29m
Leeftijd
22:53:54
LT
21:53
UTC
0 ft

1.000

2.000

3.000

4.000

5.000

OVC 1.000
MVFR
<?= Yii::t('app', 'Wind direction') ?> <?= Yii::t('app', 'of'); ?>
040°
08:26
Zonsopgang
93%
Luchtvochtigheid
Windschering
Gesloten/sneeuw
Baanzicht
Baanconditie
Verticaal zicht
Min. zicht
CAVOK
Trend
Correctie
Speciaal rapport
1025 hPa
QNH
METAR EHGG 262125Z AUTO 04009KT 010V070 9999 OVC010 04/03 Q1025 NOSIG
Geheel bewolkt
7 kt
7 kt
22:00
IFR
10 kt
23:00
IFR
10 kt
00:00
IFR
10 kt
01:00
IFR
10 kt
02:00
IFR
10 kt
03:00
IFR
10 kt
04:00
IFR
10 kt
10 km+
Zicht
1.000 ft
Plafond
9 kt
Wind
metar-taf.com/NL-0036

Metar-Taf.com

Visuele decoder

Wij en derden volgen je internetgedrag op onze website met cookies. Als je doorgaat, gaan we ervan uit dat je akkoord gaat met onze cookiebeleid.